sensor_id;sensor_type;location;lat;lon;timestamp;temperature;humidity
26224;DHT22;14820;48.682;8.890;2022-11-02T00:00:32;7.00;99.90
26224;DHT22;14820;48.682;8.890;2022-11-02T00:02:58;7.00;99.90
26224;DHT22;14820;48.682;8.890;2022-11-02T00:05:24;7.10;99.90
26224;DHT22;14820;48.682;8.890;2022-11-02T00:07:51;6.90;99.90
26224;DHT22;14820;48.682;8.890;2022-11-02T00:10:17;6.80;99.90
26224;DHT22;14820;48.682;8.890;2022-11-02T00:12:43;6.70;99.90
26224;DHT22;14820;48.682;8.890;2022-11-02T00:15:10;6.60;99.90
26224;DHT22;14820;48.682;8.890;2022-11-02T00:17:35;6.60;99.90
26224;DHT22;14820;48.682;8.890;2022-11-02T00:20:03;6.60;99.90
26224;DHT22;14820;48.682;8.890;2022-11-02T00:22:29;6.50;99.90
26224;DHT22;14820;48.682;8.890;2022-11-02T00:24:55;6.50;99.90
26224;DHT22;14820;48.682;8.890;2022-11-02T00:27:22;6.50;99.90
26224;DHT22;14820;48.682;8.890;2022-11-02T00:29:48;6.60;99.90
26224;DHT22;14820;48.682;8.890;2022-11-02T00:32:14;6.50;99.90
26224;DHT22;14820;48.682;8.890;2022-11-02T00:34:40;6.50;99.90
26224;DHT22;14820;48.682;8.890;2022-11-02T00:37:05;6.50;99.90
26224;DHT22;14820;48.682;8.890;2022-11-02T00:39:31;6.60;99.90
26224;DHT22;14820;48.682;8.890;2022-11-02T00:41:57;6.60;99.90
26224;DHT22;14820;48.682;8.890;2022-11-02T00:44:22;6.60;99.90
26224;DHT22;14820;48.682;8.890;2022-11-02T00:46:48;6.60;99.90
26224;DHT22;14820;48.682;8.890;2022-11-02T00:49:13;6.60;99.90
26224;DHT22;14820;48.682;8.890;2022-11-02T00:51:39;6.60;99.90
26224;DHT22;14820;48.682;8.890;2022-11-02T00:54:05;6.60;99.90
26224;DHT22;14820;48.682;8.890;2022-11-02T00:56:30;6.60;99.90
26224;DHT22;14820;48.682;8.890;2022-11-02T00:58:56;6.60;99.90
26224;DHT22;14820;48.682;8.890;2022-11-02T01:01:22;6.60;99.90
26224;DHT22;14820;48.682;8.890;2022-11-02T01:03:47;6.60;99.90
26224;DHT22;14820;48.682;8.890;2022-11-02T01:06:14;6.60;99.90
26224;DHT22;14820;48.682;8.890;2022-11-02T01:08:40;6.60;99.90
26224;DHT22;14820;48.682;8.890;2022-11-02T01:11:11;6.60;99.90
26224;DHT22;14820;48.682;8.890;2022-11-02T01:13:36;6.60;99.90
26224;DHT22;14820;48.682;8.890;2022-11-02T01:16:03;6.60;99.90
26224;DHT22;14820;48.682;8.890;2022-11-02T01:18:29;6.60;99.90
26224;DHT22;14820;48.682;8.890;2022-11-02T01:20:56;6.60;99.90
26224;DHT22;14820;48.682;8.890;2022-11-02T01:23:22;6.60;99.90
26224;DHT22;14820;48.682;8.890;2022-11-02T01:25:47;6.60;99.90
26224;DHT22;14820;48.682;8.890;2022-11-02T01:28:13;6.70;99.90
26224;DHT22;14820;48.682;8.890;2022-11-02T01:30:39;6.70;99.90
26224;DHT22;14820;48.682;8.890;2022-11-02T01:33:06;6.60;99.90
26224;DHT22;14820;48.682;8.890;2022-11-02T01:35:31;6.70;99.90
26224;DHT22;14820;48.682;8.890;2022-11-02T01:37:57;6.70;99.90
26224;DHT22;14820;48.682;8.890;2022-11-02T01:40:23;6.90;99.90
26224;DHT22;14820;48.682;8.890;2022-11-02T01:42:48;7.00;99.90
26224;DHT22;14820;48.682;8.890;2022-11-02T01:45:14;7.00;99.90
26224;DHT22;14820;48.682;8.890;2022-11-02T01:47:43;7.20;99.90
26224;DHT22;14820;48.682;8.890;2022-11-02T01:50:14;7.30;99.90
26224;DHT22;14820;48.682;8.890;2022-11-02T01:52:41;7.30;99.90
26224;DHT22;14820;48.682;8.890;2022-11-02T01:55:21;7.40;99.90
26224;DHT22;14820;48.682;8.890;2022-11-02T01:57:52;7.40;99.90
26224;DHT22;14820;48.682;8.890;2022-11-02T02:00:19;7.50;99.90
26224;DHT22;14820;48.682;8.890;2022-11-02T02:02:52;7.50;99.90
26224;DHT22;14820;48.682;8.890;2022-11-02T02:05:20;7.60;99.90
26224;DHT22;14820;48.682;8.890;2022-11-02T02:07:46;7.60;99.90
26224;DHT22;14820;48.682;8.890;2022-11-02T02:10:12;7.60;99.90
26224;DHT22;14820;48.682;8.890;2022-11-02T02:12:40;7.60;99.90
26224;DHT22;14820;48.682;8.890;2022-11-02T02:15:07;7.60;99.90
26224;DHT22;14820;48.682;8.890;2022-11-02T02:17:40;7.70;99.90
26224;DHT22;14820;48.682;8.890;2022-11-02T02:25:24;7.80;99.90
26224;DHT22;14820;48.682;8.890;2022-11-02T02:30:22;7.90;99.90
26224;DHT22;14820;48.682;8.890;2022-11-02T02:32:53;7.80;99.90
26224;DHT22;14820;48.682;8.890;2022-11-02T02:35:32;7.80;99.90
26224;DHT22;14820;48.682;8.890;2022-11-02T02:38:01;7.80;99.90
26224;DHT22;14820;48.682;8.890;2022-11-02T02:40:34;7.90;99.90
26224;DHT22;14820;48.682;8.890;2022-11-02T02:43:11;7.90;99.90
26224;DHT22;14820;48.682;8.890;2022-11-02T02:45:38;7.90;99.90
26224;DHT22;14820;48.682;8.890;2022-11-02T02:48:14;8.00;99.90
26224;DHT22;14820;48.682;8.890;2022-11-02T02:50:50;8.00;99.90
26224;DHT22;14820;48.682;8.890;2022-11-02T02:53:21;8.00;99.90
26224;DHT22;14820;48.682;8.890;2022-11-02T02:55:49;8.10;99.90
26224;DHT22;14820;48.682;8.890;2022-11-02T02:58:21;8.00;99.90
26224;DHT22;14820;48.682;8.890;2022-11-02T03:00:48;8.10;99.90
26224;DHT22;14820;48.682;8.890;2022-11-02T03:03:25;8.10;99.90
26224;DHT22;14820;48.682;8.890;2022-11-02T03:08:25;8.10;99.90
26224;DHT22;14820;48.682;8.890;2022-11-02T03:11:04;8.10;99.90
26224;DHT22;14820;48.682;8.890;2022-11-02T03:19:01;8.20;99.90
26224;DHT22;14820;48.682;8.890;2022-11-02T03:21:42;8.20;99.90
26224;DHT22;14820;48.682;8.890;2022-11-02T03:24:32;8.30;99.90
26224;DHT22;14820;48.682;8.890;2022-11-02T03:29:41;8.30;99.90
26224;DHT22;14820;48.682;8.890;2022-11-02T03:32:12;8.30;99.90
26224;DHT22;14820;48.682;8.890;2022-11-02T03:34:45;8.30;99.90
26224;DHT22;14820;48.682;8.890;2022-11-02T03:37:21;8.30;99.90
26224;DHT22;14820;48.682;8.890;2022-11-02T03:39:49;8.30;99.90
26224;DHT22;14820;48.682;8.890;2022-11-02T03:42:20;8.30;99.90
26224;DHT22;14820;48.682;8.890;2022-11-02T03:44:49;8.30;99.90
26224;DHT22;14820;48.682;8.890;2022-11-02T03:47:19;8.30;99.90
26224;DHT22;14820;48.682;8.890;2022-11-02T03:49:46;8.30;99.90
26224;DHT22;14820;48.682;8.890;2022-11-02T03:52:19;8.20;99.90
26224;DHT22;14820;48.682;8.890;2022-11-02T03:54:56;8.20;99.90
26224;DHT22;14820;48.682;8.890;2022-11-02T03:57:33;8.20;99.90
26224;DHT22;14820;48.682;8.890;2022-11-02T04:00:16;8.20;99.90
26224;DHT22;14820;48.682;8.890;2022-11-02T04:02:46;8.30;99.90
26224;DHT22;14820;48.682;8.890;2022-11-02T04:05:13;8.40;99.90
26224;DHT22;14820;48.682;8.890;2022-11-02T04:07:41;8.30;99.90
26224;DHT22;14820;48.682;8.890;2022-11-02T04:10:26;8.40;99.90
26224;DHT22;14820;48.682;8.890;2022-11-02T04:12:52;8.30;99.90
26224;DHT22;14820;48.682;8.890;2022-11-02T04:15:36;8.30;99.90
26224;DHT22;14820;48.682;8.890;2022-11-02T04:18:02;8.30;99.90
26224;DHT22;14820;48.682;8.890;2022-11-02T04:20:50;8.20;99.90
26224;DHT22;14820;48.682;8.890;2022-11-02T04:23:16;8.30;99.90
26224;DHT22;14820;48.682;8.890;2022-11-02T04:26:03;8.30;99.90
26224;DHT22;14820;48.682;8.890;2022-11-02T04:28:29;8.20;99.90
26224;DHT22;14820;48.682;8.890;2022-11-02T04:30:57;8.20;99.90
26224;DHT22;14820;48.682;8.890;2022-11-02T04:33:26;8.20;99.90
26224;DHT22;14820;48.682;8.890;2022-11-02T04:36:02;8.20;99.90
26224;DHT22;14820;48.682;8.890;2022-11-02T04:38:29;8.10;99.90
26224;DHT22;14820;48.682;8.890;2022-11-02T04:41:13;8.10;99.90
26224;DHT22;14820;48.682;8.890;2022-11-02T04:43:59;8.10;99.90
26224;DHT22;14820;48.682;8.890;2022-11-02T04:46:27;8.00;99.90
26224;DHT22;14820;48.682;8.890;2022-11-02T04:48:53;8.00;99.90
26224;DHT22;14820;48.682;8.890;2022-11-02T04:51:19;7.90;99.90
26224;DHT22;14820;48.682;8.890;2022-11-02T04:53:46;7.80;99.90
26224;DHT22;14820;48.682;8.890;2022-11-02T04:56:12;7.80;99.90
26224;DHT22;14820;48.682;8.890;2022-11-02T04:58:37;7.70;99.90
26224;DHT22;14820;48.682;8.890;2022-11-02T05:01:07;7.70;99.90
26224;DHT22;14820;48.682;8.890;2022-11-02T05:03:34;7.70;99.90
26224;DHT22;14820;48.682;8.890;2022-11-02T05:06:01;7.80;99.90
26224;DHT22;14820;48.682;8.890;2022-11-02T05:08:27;7.80;99.90
26224;DHT22;14820;48.682;8.890;2022-11-02T05:10:56;7.80;99.90
26224;DHT22;14820;48.682;8.890;2022-11-02T05:13:23;7.80;99.90
26224;DHT22;14820;48.682;8.890;2022-11-02T05:15:49;7.90;99.90
26224;DHT22;14820;48.682;8.890;2022-11-02T05:18:15;7.90;99.90
26224;DHT22;14820;48.682;8.890;2022-11-02T05:20:41;8.00;99.90
26224;DHT22;14820;48.682;8.890;2022-11-02T05:23:07;8.00;99.90
26224;DHT22;14820;48.682;8.890;2022-11-02T05:25:33;8.00;99.90
26224;DHT22;14820;48.682;8.890;2022-11-02T05:27:59;8.00;99.90
26224;DHT22;14820;48.682;8.890;2022-11-02T05:30:25;8.00;99.90
26224;DHT22;14820;48.682;8.890;2022-11-02T05:32:55;8.00;99.90
26224;DHT22;14820;48.682;8.890;2022-11-02T05:35:21;8.10;99.90
26224;DHT22;14820;48.682;8.890;2022-11-02T05:37:47;8.10;99.90
26224;DHT22;14820;48.682;8.890;2022-11-02T05:40:13;8.10;99.90
26224;DHT22;14820;48.682;8.890;2022-11-02T05:42:38;8.10;99.90
26224;DHT22;14820;48.682;8.890;2022-11-02T05:45:05;8.10;99.90
26224;DHT22;14820;48.682;8.890;2022-11-02T05:47:32;8.20;99.90
26224;DHT22;14820;48.682;8.890;2022-11-02T05:49:57;8.20;99.90
26224;DHT22;14820;48.682;8.890;2022-11-02T05:52:23;8.20;99.90
26224;DHT22;14820;48.682;8.890;2022-11-02T05:54:49;8.20;99.90
26224;DHT22;14820;48.682;8.890;2022-11-02T05:57:14;8.30;99.90
26224;DHT22;14820;48.682;8.890;2022-11-02T05:59:41;8.30;99.90
26224;DHT22;14820;48.682;8.890;2022-11-02T06:02:07;8.30;99.90
26224;DHT22;14820;48.682;8.890;2022-11-02T06:04:32;8.30;99.90
26224;DHT22;14820;48.682;8.890;2022-11-02T06:06:58;8.40;99.90
26224;DHT22;14820;48.682;8.890;2022-11-02T06:09:24;8.40;99.90
26224;DHT22;14820;48.682;8.890;2022-11-02T06:11:50;8.40;99.90
26224;DHT22;14820;48.682;8.890;2022-11-02T06:14:15;8.40;99.90
26224;DHT22;14820;48.682;8.890;2022-11-02T06:16:41;8.40;99.90
26224;DHT22;14820;48.682;8.890;2022-11-02T06:19:06;8.30;99.90
26224;DHT22;14820;48.682;8.890;2022-11-02T06:21:32;8.40;99.90
26224;DHT22;14820;48.682;8.890;2022-11-02T06:23:58;8.40;99.90
26224;DHT22;14820;48.682;8.890;2022-11-02T06:26:24;8.40;99.90
26224;DHT22;14820;48.682;8.890;2022-11-02T06:28:49;8.40;99.90
26224;DHT22;14820;48.682;8.890;2022-11-02T06:31:15;8.40;99.90
26224;DHT22;14820;48.682;8.890;2022-11-02T06:33:42;8.40;99.90
26224;DHT22;14820;48.682;8.890;2022-11-02T06:36:09;8.50;99.90
26224;DHT22;14820;48.682;8.890;2022-11-02T06:38:35;8.50;99.90
26224;DHT22;14820;48.682;8.890;2022-11-02T06:41:02;8.50;99.90
26224;DHT22;14820;48.682;8.890;2022-11-02T06:43:32;8.50;99.90
26224;DHT22;14820;48.682;8.890;2022-11-02T06:45:58;8.50;99.90
26224;DHT22;14820;48.682;8.890;2022-11-02T06:48:25;8.50;99.90
26224;DHT22;14820;48.682;8.890;2022-11-02T06:50:50;8.60;99.90
26224;DHT22;14820;48.682;8.890;2022-11-02T06:53:16;8.60;99.90
26224;DHT22;14820;48.682;8.890;2022-11-02T06:55:43;8.60;99.90
26224;DHT22;14820;48.682;8.890;2022-11-02T06:58:09;8.60;99.90
26224;DHT22;14820;48.682;8.890;2022-11-02T07:00:35;8.50;99.90
26224;DHT22;14820;48.682;8.890;2022-11-02T07:03:05;8.50;99.90
26224;DHT22;14820;48.682;8.890;2022-11-02T07:05:32;8.50;99.90
26224;DHT22;14820;48.682;8.890;2022-11-02T07:07:58;8.60;99.90
26224;DHT22;14820;48.682;8.890;2022-11-02T07:10:24;8.60;99.90
26224;DHT22;14820;48.682;8.890;2022-11-02T07:12:52;8.70;99.90
26224;DHT22;14820;48.682;8.890;2022-11-02T07:15:19;8.70;99.90
26224;DHT22;14820;48.682;8.890;2022-11-02T07:17:45;8.80;99.90
26224;DHT22;14820;48.682;8.890;2022-11-02T07:20:11;8.80;99.90
26224;DHT22;14820;48.682;8.890;2022-11-02T07:22:37;8.90;99.90
26224;DHT22;14820;48.682;8.890;2022-11-02T07:25:03;9.00;99.90
26224;DHT22;14820;48.682;8.890;2022-11-02T07:27:29;9.10;99.90
26224;DHT22;14820;48.682;8.890;2022-11-02T07:29:54;9.10;99.90
26224;DHT22;14820;48.682;8.890;2022-11-02T07:32:20;9.30;99.90
26224;DHT22;14820;48.682;8.890;2022-11-02T07:34:45;9.50;99.90
26224;DHT22;14820;48.682;8.890;2022-11-02T07:37:11;9.50;99.90
26224;DHT22;14820;48.682;8.890;2022-11-02T07:39:37;9.70;99.90
26224;DHT22;14820;48.682;8.890;2022-11-02T07:42:02;9.80;99.90
26224;DHT22;14820;48.682;8.890;2022-11-02T07:44:28;9.90;99.90
26224;DHT22;14820;48.682;8.890;2022-11-02T07:46:55;10.00;99.90
26224;DHT22;14820;48.682;8.890;2022-11-02T07:49:21;10.00;99.90
26224;DHT22;14820;48.682;8.890;2022-11-02T07:51:46;10.10;99.90
26224;DHT22;14820;48.682;8.890;2022-11-02T07:54:12;10.20;99.90
26224;DHT22;14820;48.682;8.890;2022-11-02T07:56:38;10.30;99.90
26224;DHT22;14820;48.682;8.890;2022-11-02T07:59:03;10.40;99.90
26224;DHT22;14820;48.682;8.890;2022-11-02T08:01:29;10.50;99.90
26224;DHT22;14820;48.682;8.890;2022-11-02T08:03:55;10.60;99.90
26224;DHT22;14820;48.682;8.890;2022-11-02T08:06:24;10.60;99.90
26224;DHT22;14820;48.682;8.890;2022-11-02T08:08:50;10.70;99.90
26224;DHT22;14820;48.682;8.890;2022-11-02T08:11:15;10.80;99.90
26224;DHT22;14820;48.682;8.890;2022-11-02T08:13:41;10.80;99.90
26224;DHT22;14820;48.682;8.890;2022-11-02T08:16:07;10.90;99.90
26224;DHT22;14820;48.682;8.890;2022-11-02T08:18:32;11.00;99.90
26224;DHT22;14820;48.682;8.890;2022-11-02T08:20:58;11.00;99.90
26224;DHT22;14820;48.682;8.890;2022-11-02T08:23:26;11.00;99.90
26224;DHT22;14820;48.682;8.890;2022-11-02T08:25:53;11.10;99.90
26224;DHT22;14820;48.682;8.890;2022-11-02T08:28:22;11.10;99.90
26224;DHT22;14820;48.682;8.890;2022-11-02T08:30:48;11.10;99.90
26224;DHT22;14820;48.682;8.890;2022-11-02T08:33:15;11.20;99.90
26224;DHT22;14820;48.682;8.890;2022-11-02T08:35:42;11.20;99.90
26224;DHT22;14820;48.682;8.890;2022-11-02T08:38:08;11.20;99.90
26224;DHT22;14820;48.682;8.890;2022-11-02T08:40:34;11.20;99.90
26224;DHT22;14820;48.682;8.890;2022-11-02T08:43:11;11.30;99.90
26224;DHT22;14820;48.682;8.890;2022-11-02T08:45:38;11.30;99.90
26224;DHT22;14820;48.682;8.890;2022-11-02T08:48:05;11.30;99.90
26224;DHT22;14820;48.682;8.890;2022-11-02T08:50:31;11.40;99.90
26224;DHT22;14820;48.682;8.890;2022-11-02T08:52:57;11.40;99.90
26224;DHT22;14820;48.682;8.890;2022-11-02T08:55:23;11.50;99.90
26224;DHT22;14820;48.682;8.890;2022-11-02T08:57:56;11.50;99.90
26224;DHT22;14820;48.682;8.890;2022-11-02T09:00:30;11.50;99.90
26224;DHT22;14820;48.682;8.890;2022-11-02T09:02:58;11.60;99.90
26224;DHT22;14820;48.682;8.890;2022-11-02T09:05:24;11.60;99.90
26224;DHT22;14820;48.682;8.890;2022-11-02T09:08:01;11.60;99.90
26224;DHT22;14820;48.682;8.890;2022-11-02T09:10:29;11.70;99.90
26224;DHT22;14820;48.682;8.890;2022-11-02T09:12:55;11.70;99.90
26224;DHT22;14820;48.682;8.890;2022-11-02T09:15:22;11.80;99.90
26224;DHT22;14820;48.682;8.890;2022-11-02T09:17:48;11.80;99.90
26224;DHT22;14820;48.682;8.890;2022-11-02T09:20:15;11.90;99.90
26224;DHT22;14820;48.682;8.890;2022-11-02T09:22:42;11.90;99.90
26224;DHT22;14820;48.682;8.890;2022-11-02T09:25:08;11.90;99.90
26224;DHT22;14820;48.682;8.890;2022-11-02T09:27:41;11.90;99.90
26224;DHT22;14820;48.682;8.890;2022-11-02T09:30:08;12.00;99.90
26224;DHT22;14820;48.682;8.890;2022-11-02T09:32:34;12.00;99.90
26224;DHT22;14820;48.682;8.890;2022-11-02T09:35:08;12.00;99.90
26224;DHT22;14820;48.682;8.890;2022-11-02T09:37:34;12.10;99.90
26224;DHT22;14820;48.682;8.890;2022-11-02T09:40:00;12.10;99.90
26224;DHT22;14820;48.682;8.890;2022-11-02T09:42:45;12.10;99.90
26224;DHT22;14820;48.682;8.890;2022-11-02T09:45:16;12.10;99.90
26224;DHT22;14820;48.682;8.890;2022-11-02T09:48:00;12.10;99.90
26224;DHT22;14820;48.682;8.890;2022-11-02T09:50:42;12.10;99.90
26224;DHT22;14820;48.682;8.890;2022-11-02T09:53:13;12.20;99.90
26224;DHT22;14820;48.682;8.890;2022-11-02T09:55:50;12.20;99.90
26224;DHT22;14820;48.682;8.890;2022-11-02T09:58:20;12.20;99.90
26224;DHT22;14820;48.682;8.890;2022-11-02T10:00:50;12.20;99.90
26224;DHT22;14820;48.682;8.890;2022-11-02T10:03:46;12.40;99.90
26224;DHT22;14820;48.682;8.890;2022-11-02T10:10:07;12.40;99.90
26224;DHT22;14820;48.682;8.890;2022-11-02T10:12:22;12.40;99.90
26224;DHT22;14820;48.682;8.890;2022-11-02T10:15:09;12.40;99.90
26224;DHT22;14820;48.682;8.890;2022-11-02T10:17:37;12.50;99.90
26224;DHT22;14820;48.682;8.890;2022-11-02T10:20:19;12.50;99.90
26224;DHT22;14820;48.682;8.890;2022-11-02T10:22:47;12.50;99.90
26224;DHT22;14820;48.682;8.890;2022-11-02T10:25:15;12.50;99.90
26224;DHT22;14820;48.682;8.890;2022-11-02T10:27:43;12.50;99.90
26224;DHT22;14820;48.682;8.890;2022-11-02T10:30:15;12.60;99.90
26224;DHT22;14820;48.682;8.890;2022-11-02T10:32:41;12.60;99.90
26224;DHT22;14820;48.682;8.890;2022-11-02T10:43:02;12.70;99.90
26224;DHT22;14820;48.682;8.890;2022-11-02T10:51:16;12.70;99.90
26224;DHT22;14820;48.682;8.890;2022-11-02T10:53:47;12.70;99.90
26224;DHT22;14820;48.682;8.890;2022-11-02T10:59:01;12.70;99.90
26224;DHT22;14820;48.682;8.890;2022-11-02T11:01:28;12.80;99.90
26224;DHT22;14820;48.682;8.890;2022-11-02T11:04:03;12.80;99.90
26224;DHT22;14820;48.682;8.890;2022-11-02T11:06:38;12.80;99.90
26224;DHT22;14820;48.682;8.890;2022-11-02T11:09:25;12.80;99.90
26224;DHT22;14820;48.682;8.890;2022-11-02T11:12:03;12.80;99.90
26224;DHT22;14820;48.682;8.890;2022-11-02T11:14:35;12.80;99.90
26224;DHT22;14820;48.682;8.890;2022-11-02T11:17:13;12.90;99.90
26224;DHT22;14820;48.682;8.890;2022-11-02T11:19:55;12.90;99.90
26224;DHT22;14820;48.682;8.890;2022-11-02T11:22:37;13.00;99.90
26224;DHT22;14820;48.682;8.890;2022-11-02T11:25:21;13.00;99.90
26224;DHT22;14820;48.682;8.890;2022-11-02T11:28:00;13.00;99.90
26224;DHT22;14820;48.682;8.890;2022-11-02T11:30:37;13.20;99.90
26224;DHT22;14820;48.682;8.890;2022-11-02T11:33:05;13.20;99.90
26224;DHT22;14820;48.682;8.890;2022-11-02T11:35:34;13.40;99.90
26224;DHT22;14820;48.682;8.890;2022-11-02T11:38:07;13.50;99.90
26224;DHT22;14820;48.682;8.890;2022-11-02T11:40:38;13.40;99.90
26224;DHT22;14820;48.682;8.890;2022-11-02T11:43:14;13.40;99.90
26224;DHT22;14820;48.682;8.890;2022-11-02T11:46:01;13.40;99.90
26224;DHT22;14820;48.682;8.890;2022-11-02T11:48:49;13.30;99.90
26224;DHT22;14820;48.682;8.890;2022-11-02T11:56:29;13.40;99.90
26224;DHT22;14820;48.682;8.890;2022-11-02T11:58:58;13.50;99.90
26224;DHT22;14820;48.682;8.890;2022-11-02T12:01:24;13.70;99.90
26224;DHT22;14820;48.682;8.890;2022-11-02T12:03:58;13.80;99.90
26224;DHT22;14820;48.682;8.890;2022-11-02T12:06:49;13.90;99.90
26224;DHT22;14820;48.682;8.890;2022-11-02T12:12:30;13.80;99.90
26224;DHT22;14820;48.682;8.890;2022-11-02T12:25:39;13.70;99.90
26224;DHT22;14820;48.682;8.890;2022-11-02T12:36:57;14.30;99.90
26224;DHT22;14820;48.682;8.890;2022-11-02T12:42:39;14.40;99.90
26224;DHT22;14820;48.682;8.890;2022-11-02T12:48:09;14.50;99.90
26224;DHT22;14820;48.682;8.890;2022-11-02T12:51:00;14.50;99.90
26224;DHT22;14820;48.682;8.890;2022-11-02T12:53:49;14.50;99.90
26224;DHT22;14820;48.682;8.890;2022-11-02T12:56:24;14.60;99.90
26224;DHT22;14820;48.682;8.890;2022-11-02T12:58:51;14.60;99.90
26224;DHT22;14820;48.682;8.890;2022-11-02T13:01:37;14.50;99.90
26224;DHT22;14820;48.682;8.890;2022-11-02T13:04:24;14.50;99.90
26224;DHT22;14820;48.682;8.890;2022-11-02T13:07:04;14.40;99.90
26224;DHT22;14820;48.682;8.890;2022-11-02T13:09:36;14.40;99.90
26224;DHT22;14820;48.682;8.890;2022-11-02T13:12:14;14.40;99.90
26224;DHT22;14820;48.682;8.890;2022-11-02T13:14:46;14.40;99.90
26224;DHT22;14820;48.682;8.890;2022-11-02T13:19:53;14.50;99.90
26224;DHT22;14820;48.682;8.890;2022-11-02T13:22:29;14.50;99.90
26224;DHT22;14820;48.682;8.890;2022-11-02T13:25:19;14.50;99.90
26224;DHT22;14820;48.682;8.890;2022-11-02T13:27:52;14.50;99.90
26224;DHT22;14820;48.682;8.890;2022-11-02T13:30:20;14.60;99.90
26224;DHT22;14820;48.682;8.890;2022-11-02T13:33:02;14.60;99.90
26224;DHT22;14820;48.682;8.890;2022-11-02T13:35:37;14.50;99.90
26224;DHT22;14820;48.682;8.890;2022-11-02T13:38:36;14.40;99.90
26224;DHT22;14820;48.682;8.890;2022-11-02T13:49:39;14.60;99.90
26224;DHT22;14820;48.682;8.890;2022-11-02T13:52:15;14.50;99.90
26224;DHT22;14820;48.682;8.890;2022-11-02T13:54:52;14.40;99.90
26224;DHT22;14820;48.682;8.890;2022-11-02T14:00:29;14.50;99.90
26224;DHT22;14820;48.682;8.890;2022-11-02T14:05:39;14.90;99.90
26224;DHT22;14820;48.682;8.890;2022-11-02T14:08:08;15.00;99.90
26224;DHT22;14820;48.682;8.890;2022-11-02T14:10:40;15.10;99.90
26224;DHT22;14820;48.682;8.890;2022-11-02T14:22:13;15.40;99.90
26224;DHT22;14820;48.682;8.890;2022-11-02T14:29:55;15.60;99.90
26224;DHT22;14820;48.682;8.890;2022-11-02T14:46:59;15.80;99.90
26224;DHT22;14820;48.682;8.890;2022-11-02T14:49:31;15.80;99.90
26224;DHT22;14820;48.682;8.890;2022-11-02T14:52:15;15.80;99.90
26224;DHT22;14820;48.682;8.890;2022-11-02T14:55:00;15.80;99.90
26224;DHT22;14820;48.682;8.890;2022-11-02T14:57:28;15.80;99.90
26224;DHT22;14820;48.682;8.890;2022-11-02T14:59:56;15.80;99.90
26224;DHT22;14820;48.682;8.890;2022-11-02T15:02:36;15.70;99.90
26224;DHT22;14820;48.682;8.890;2022-11-02T15:05:05;15.60;99.90
26224;DHT22;14820;48.682;8.890;2022-11-02T15:12:47;15.30;99.90
26224;DHT22;14820;48.682;8.890;2022-11-02T15:15:34;15.20;99.90
26224;DHT22;14820;48.682;8.890;2022-11-02T15:18:22;15.00;99.90
26224;DHT22;14820;48.682;8.890;2022-11-02T15:31:50;14.40;99.90
26224;DHT22;14820;48.682;8.890;2022-11-02T15:34:20;14.30;99.90
26224;DHT22;14820;48.682;8.890;2022-11-02T15:36:51;14.20;99.90
26224;DHT22;14820;48.682;8.890;2022-11-02T15:39:17;14.10;99.90
26224;DHT22;14820;48.682;8.890;2022-11-02T15:41:46;14.00;99.90
26224;DHT22;14820;48.682;8.890;2022-11-02T15:47:16;13.80;99.90
26224;DHT22;14820;48.682;8.890;2022-11-02T15:55:20;13.30;99.90
26224;DHT22;14820;48.682;8.890;2022-11-02T16:00:37;13.00;99.90
26224;DHT22;14820;48.682;8.890;2022-11-02T16:03:05;12.90;99.90
26224;DHT22;14820;48.682;8.890;2022-11-02T16:05:43;12.80;99.90
26224;DHT22;14820;48.682;8.890;2022-11-02T16:08:32;12.70;99.90
26224;DHT22;14820;48.682;8.890;2022-11-02T16:14:15;12.40;99.90
26224;DHT22;14820;48.682;8.890;2022-11-02T16:16:46;12.30;99.90
26224;DHT22;14820;48.682;8.890;2022-11-02T16:19:20;12.20;99.90
26224;DHT22;14820;48.682;8.890;2022-11-02T16:21:47;12.10;99.90
26224;DHT22;14820;48.682;8.890;2022-11-02T16:24:17;12.10;99.90
26224;DHT22;14820;48.682;8.890;2022-11-02T16:26:45;11.90;99.90
26224;DHT22;14820;48.682;8.890;2022-11-02T16:29:24;11.80;99.90
26224;DHT22;14820;48.682;8.890;2022-11-02T16:31:51;11.70;99.90
26224;DHT22;14820;48.682;8.890;2022-11-02T16:34:29;11.60;99.90
26224;DHT22;14820;48.682;8.890;2022-11-02T16:36:56;11.50;99.90
26224;DHT22;14820;48.682;8.890;2022-11-02T16:39:30;11.50;99.90
26224;DHT22;14820;48.682;8.890;2022-11-02T16:42:06;11.30;99.90
26224;DHT22;14820;48.682;8.890;2022-11-02T16:44:32;11.20;99.90
26224;DHT22;14820;48.682;8.890;2022-11-02T16:49:55;11.00;99.90
26224;DHT22;14820;48.682;8.890;2022-11-02T16:52:34;10.80;99.90
26224;DHT22;14820;48.682;8.890;2022-11-02T16:55:00;10.70;99.90
26224;DHT22;14820;48.682;8.890;2022-11-02T16:57:43;10.60;99.90
26224;DHT22;14820;48.682;8.890;2022-11-02T17:00:19;10.60;99.90
26224;DHT22;14820;48.682;8.890;2022-11-02T17:02:45;10.40;99.90
26224;DHT22;14820;48.682;8.890;2022-11-02T17:05:22;10.40;99.90
26224;DHT22;14820;48.682;8.890;2022-11-02T17:07:56;10.50;99.90
26224;DHT22;14820;48.682;8.890;2022-11-02T17:10:25;10.50;99.90
26224;DHT22;14820;48.682;8.890;2022-11-02T17:12:52;10.40;99.90
26224;DHT22;14820;48.682;8.890;2022-11-02T17:15:21;10.40;99.90
26224;DHT22;14820;48.682;8.890;2022-11-02T17:17:47;10.20;99.90
26224;DHT22;14820;48.682;8.890;2022-11-02T17:23:01;10.00;99.90
26224;DHT22;14820;48.682;8.890;2022-11-02T17:25:35;9.90;99.90
26224;DHT22;14820;48.682;8.890;2022-11-02T17:30:47;10.10;99.90
26224;DHT22;14820;48.682;8.890;2022-11-02T17:33:27;10.10;99.90
26224;DHT22;14820;48.682;8.890;2022-11-02T17:35:56;9.80;99.90
26224;DHT22;14820;48.682;8.890;2022-11-02T17:38:27;9.70;99.90
26224;DHT22;14820;48.682;8.890;2022-11-02T17:40:53;9.60;99.90
26224;DHT22;14820;48.682;8.890;2022-11-02T17:43:20;9.50;99.90
26224;DHT22;14820;48.682;8.890;2022-11-02T17:45:56;9.50;99.90
26224;DHT22;14820;48.682;8.890;2022-11-02T17:48:22;9.30;99.90
26224;DHT22;14820;48.682;8.890;2022-11-02T17:50:51;9.20;99.90
26224;DHT22;14820;48.682;8.890;2022-11-02T17:53:18;9.20;99.90
26224;DHT22;14820;48.682;8.890;2022-11-02T17:55:43;9.10;99.90
26224;DHT22;14820;48.682;8.890;2022-11-02T17:58:09;9.00;99.90
26224;DHT22;14820;48.682;8.890;2022-11-02T18:00:35;9.00;99.90
26224;DHT22;14820;48.682;8.890;2022-11-02T18:03:01;9.00;99.90
26224;DHT22;14820;48.682;8.890;2022-11-02T18:05:32;8.90;99.90
26224;DHT22;14820;48.682;8.890;2022-11-02T18:07:59;8.80;99.90
26224;DHT22;14820;48.682;8.890;2022-11-02T18:10:29;8.70;99.90
26224;DHT22;14820;48.682;8.890;2022-11-02T18:12:55;8.70;99.90
26224;DHT22;14820;48.682;8.890;2022-11-02T18:15:24;8.70;99.90
26224;DHT22;14820;48.682;8.890;2022-11-02T18:17:50;8.60;99.90
26224;DHT22;14820;48.682;8.890;2022-11-02T18:20:17;8.60;99.90
26224;DHT22;14820;48.682;8.890;2022-11-02T18:22:43;8.60;99.90
26224;DHT22;14820;48.682;8.890;2022-11-02T18:25:11;8.60;99.90
26224;DHT22;14820;48.682;8.890;2022-11-02T18:27:38;8.50;99.90
26224;DHT22;14820;48.682;8.890;2022-11-02T18:30:06;8.50;99.90
26224;DHT22;14820;48.682;8.890;2022-11-02T18:32:35;8.50;99.90
26224;DHT22;14820;48.682;8.890;2022-11-02T18:35:01;8.50;99.90